»·PEaware :: DAL1782 KSEA-KSFO

DAL1782 :: KSEA-KSFO

FLIGHT INFORMATION

Flight Status: Arrived
Operator:
Delta Air Lines
More flights by this operator :: More flights under this callsign
Pilot: Patricio R. (14780)
Aircraft: AIRBUS A320
(A320)
More flights by this aircraft type
Origin: KSEA Seattle-Tacoma Intl
United States
Destination: KSFO San Francisco Intl
United States
More flights between these airports :: More routes between these airports
Route: HAROB6 FEPOT RBG EBINY Q1 ETCHY MLBEC BDEGA3
File this flight plan on PilotEdge
Remarks: PBN / A1B1C1D1O1S1 DOF / 181005 REG / N320SB EET / KZOA0055 OPR / DAL PER / C RMK / TCAS SIMBRIEF
Altitude:
(Current/Filed)
37,000ft
Speed:
(Current/Filed)
446kts
Departed: 05-Oct-18 09:50 AM
Arrived: 05-Oct-18 11:27 AM
Distance/Time
Traveled:
590nm/1:36
Distance/Time
To Go:
Arrived

Flight Plot

Page will automatically refresh every two minutes.

Flight plan parsing failed; only flown route is shown


Map Options




Map Legend


Flown Route
Filed Route
Departure Airport
Arrival Airport
Navaid (VOR, NDB)
Fix

Horizontal Profiles

Position Reports

Time Latitude Longitude Heading Altitude Ground
Speed
05-Oct-18 09:31 47.437941 -122.303135 352 371ft 0kts
05-Oct-18 09:32 47.437941 -122.303135 352 371ft 0kts
05-Oct-18 09:33 47.437941 -122.303135 352 371ft 0kts
05-Oct-18 09:34 47.437941 -122.303135 352 371ft 0kts
05-Oct-18 09:35 47.437941 -122.303135 352 371ft 0kts
05-Oct-18 09:36 47.437941 -122.303135 352 371ft 0kts
05-Oct-18 09:37 47.437941 -122.303135 352 371ft 0kts
05-Oct-18 09:38 47.437941 -122.303135 352 371ft 0kts
05-Oct-18 09:39 47.437941 -122.303135 352 371ft 0kts
05-Oct-18 09:40 47.437941 -122.303135 352 371ft 0kts
05-Oct-18 09:41 47.437674 -122.303080 352 370ft 2kts
05-Oct-18 09:42 47.437284 -122.302636 271 370ft 1kts
05-Oct-18 09:43 47.437292 -122.302499 263 370ft 0kts
05-Oct-18 09:44 47.437262 -122.305224 271 366ft 9kts
05-Oct-18 09:45 47.437888 -122.306411 0 368ft 6kts
05-Oct-18 09:46 47.442217 -122.306339 0 385ft 16kts
05-Oct-18 09:47 47.446840 -122.306284 1 400ft 16kts
05-Oct-18 09:48 47.451255 -122.306244 0 419ft 23kts
05-Oct-18 09:49 47.457938 -122.306180 1 440ft 24kts
05-Oct-18 09:50 47.463782 -122.306908 266 425ft 15kts
05-Oct-18 09:51 47.463659 -122.310597 266 403ft 17kts
05-Oct-18 09:52 47.435299 -122.311372 180 1212ft 190kts
05-Oct-18 09:53 47.376471 -122.312271 179 4480ft 248kts
05-Oct-18 09:54 47.316843 -122.352923 253 8113ft 279kts
05-Oct-18 09:55 47.307359 -122.447410 268 11270ft 288kts
05-Oct-18 09:56 47.311031 -122.585227 269 15295ft 298kts
05-Oct-18 09:57 47.313861 -122.691825 269 16949ft 335kts
05-Oct-18 09:58 47.300982 -122.826410 248 19500ft 341kts
05-Oct-18 09:59 47.281339 -122.987907 238 22177ft 352kts
05-Oct-18 10:00 47.219272 -123.067230 219 23827ft 364kts
05-Oct-18 10:01 47.137645 -123.156854 219 25626ft 375kts
05-Oct-18 10:02 47.042967 -123.220852 187 27223ft 401kts
05-Oct-18 10:03 46.929491 -123.224636 187 28461ft 419kts
05-Oct-18 10:04 46.814530 -123.228729 188 29603ft 433kts
05-Oct-18 10:05 46.693386 -123.233074 188 30867ft 442kts
05-Oct-18 10:06 46.570373 -123.237502 188 31989ft 450kts
05-Oct-18 10:07 46.444262 -123.242019 188 32994ft 457kts
05-Oct-18 10:08 46.318395 -123.246465 188 34270ft 454kts
05-Oct-18 10:09 46.192927 -123.250924 188 35419ft 452kts
05-Oct-18 10:10 46.092297 -123.254509 187 36103ft 455kts
05-Oct-18 10:11 45.967224 -123.258916 187 37025ft 455kts
05-Oct-18 10:12 45.841756 -123.263312 187 37147ft 455kts
05-Oct-18 10:13 45.715285 -123.267736 187 37149ft 455kts
05-Oct-18 10:14 45.589292 -123.272119 187 37152ft 456kts
05-Oct-18 10:15 45.462766 -123.276498 187 37151ft 455kts
05-Oct-18 10:16 45.336845 -123.280839 187 37152ft 455kts
05-Oct-18 10:17 45.210596 -123.285175 187 37151ft 455kts
05-Oct-18 10:18 45.084219 -123.289498 188 37147ft 456kts
05-Oct-18 10:19 44.957211 -123.293847 189 37100ft 461kts
05-Oct-18 10:20 44.828784 -123.298208 189 37147ft 467kts
05-Oct-18 10:21 44.698754 -123.302575 189 37215ft 471kts
05-Oct-18 10:22 44.568188 -123.306943 189 37227ft 471kts
05-Oct-18 10:23 44.437780 -123.311292 189 37210ft 471kts
05-Oct-18 10:24 44.307140 -123.315635 189 37190ft 470kts
05-Oct-18 10:25 44.177393 -123.319933 189 37189ft 469kts
05-Oct-18 10:26 44.047358 -123.324223 189 37186ft 469kts
05-Oct-18 10:27 43.917493 -123.328487 189 37186ft 469kts
05-Oct-18 10:28 43.788279 -123.332709 189 37193ft 468kts
05-Oct-18 10:29 43.658672 -123.336929 189 37214ft 468kts
05-Oct-18 10:30 43.528475 -123.341151 189 37220ft 468kts
05-Oct-18 10:31 43.398829 -123.345333 189 37226ft 468kts
05-Oct-18 10:32 43.268685 -123.349515 189 37227ft 469kts
05-Oct-18 10:33 43.138171 -123.345812 181 37229ft 477kts
05-Oct-18 10:34 43.006632 -123.326495 181 37224ft 477kts
05-Oct-18 10:35 42.874821 -123.307298 182 37172ft 484kts
05-Oct-18 10:36 42.740277 -123.287768 182 37198ft 492kts
05-Oct-18 10:37 42.603848 -123.268019 182 37277ft 496kts
05-Oct-18 10:38 42.466695 -123.249756 186 37285ft 493kts
05-Oct-18 10:39 42.330478 -123.244691 187 37277ft 491kts
05-Oct-18 10:40 42.194201 -123.239662 186 37248ft 490kts
05-Oct-18 10:41 42.058599 -123.234696 187 37225ft 490kts
05-Oct-18 10:42 41.922866 -123.229743 187 37223ft 489kts
05-Oct-18 10:43 41.788138 -123.224826 186 37224ft 488kts
05-Oct-18 10:44 41.653019 -123.219923 186 37215ft 487kts
05-Oct-18 10:45 41.517889 -123.215198 186 37227ft 488kts
05-Oct-18 10:46 41.382656 -123.210729 187 37237ft 488kts
05-Oct-18 10:47 41.247567 -123.206773 187 37242ft 488kts
05-Oct-18 10:48 41.112231 -123.203229 187 37244ft 488kts
05-Oct-18 10:49 40.975774 -123.199819 185 37140ft 495kts
05-Oct-18 10:50 40.839681 -123.196420 185 37155ft 502kts
05-Oct-18 10:51 40.699779 -123.192905 185 37216ft 506kts
05-Oct-18 10:52 40.559543 -123.189399 185 37234ft 507kts
05-Oct-18 10:53 40.418634 -123.185897 185 37221ft 507kts
05-Oct-18 10:54 40.278337 -123.182428 185 37198ft 506kts
05-Oct-18 10:55 40.138443 -123.178986 185 37182ft 505kts
05-Oct-18 10:56 39.998501 -123.175560 185 37183ft 505kts
05-Oct-18 10:57 39.859485 -123.170074 184 37185ft 505kts
05-Oct-18 10:58 39.720206 -123.163529 184 37180ft 504kts
05-Oct-18 10:59 39.580118 -123.157070 184 37178ft 504kts
05-Oct-18 11:00 39.440351 -123.150659 184 37188ft 505kts
05-Oct-18 11:01 39.302787 -123.144370 184 37203ft 505kts
05-Oct-18 11:02 39.162652 -123.137991 184 37206ft 505kts
05-Oct-18 11:03 39.028537 -123.084583 149 36648ft 523kts
05-Oct-18 11:04 38.905407 -122.983850 149 33984ft 521kts
05-Oct-18 11:05 38.775714 -122.929562 169 31350ft 508kts
05-Oct-18 11:06 38.643123 -122.890337 170 29957ft 474kts
05-Oct-18 11:07 38.517468 -122.853342 169 27992ft 458kts
05-Oct-18 11:08 38.395608 -122.817539 169 25979ft 444kts
05-Oct-18 11:09 38.277909 -122.783068 169 23986ft 429kts
05-Oct-18 11:10 38.163468 -122.749675 168 21996ft 416kts
05-Oct-18 11:11 38.054128 -122.717926 168 19356ft 397kts
05-Oct-18 11:12 37.950178 -122.687833 168 15865ft 375kts
05-Oct-18 11:13 37.859977 -122.631737 138 13873ft 360kts
05-Oct-18 11:14 37.788018 -122.555070 138 13029ft 323kts
05-Oct-18 11:15 37.721237 -122.484394 138 11077ft 309kts
05-Oct-18 11:16 37.655159 -122.414120 138 11016ft 311kts
05-Oct-18 11:17 37.585218 -122.351762 153 11017ft 312kts
05-Oct-18 11:18 37.508616 -122.305057 153 10078ft 305kts
05-Oct-18 11:19 37.434247 -122.258488 153 8688ft 296kts
05-Oct-18 11:20 37.363866 -122.208944 127 7279ft 289kts
05-Oct-18 11:21 37.377790 -122.126349 35 5835ft 268kts
05-Oct-18 11:22 37.436710 -122.074303 32 4419ft 243kts
05-Oct-18 11:23 37.491368 -122.093773 323 4029ft 210kts
05-Oct-18 11:24 37.525709 -122.153017 298 3632ft 213kts
05-Oct-18 11:25 37.553967 -122.220585 298 2396ft 221kts
05-Oct-18 11:26 37.578752 -122.279778 298 1390ft 156kts
05-Oct-18 11:27 37.596455 -122.322529 299 685ft 133kts
05-Oct-18 11:28 37.613780 -122.363316 299 18ft 126kts
05-Oct-18 11:29 37.619610 -122.379373 225 15ft 0kts
05-Oct-18 11:30 37.619431 -122.379604 225 15ft 7kts
05-Oct-18 11:31 37.616696 -122.379617 199 16ft 16kts
05-Oct-18 11:32 37.616034 -122.382863 231 17ft 6kts
05-Oct-18 11:33 37.615745 -122.383228 224 17ft 0kts
05-Oct-18 11:34 37.615745 -122.383228 224 17ft 0kts

Navigation Log

Ident Type
Flight plan parsing failed, navigation log unavailable